Time;durP1;ratioP1;P1;durP2;ratioP2;P2;SDS_P1;SDS_P2;PMS_P1;PMS_P2;Temp;Humidity;BMP_temperature;BMP_pressure;BME280_temperature;BME280_humidity;BME280_pressure;Samples;Min_cycle;Max_cycle;Signal;HPM_P1;HPM_P2
2023/09/28 00:01:35;;;;;;;2.92;2.20;;;;;;;20.34;85.91;100787.59;5046664;28;20033;-60
2023/09/28 00:04:02;;;;;;;4.00;2.53;;;;;;;20.25;86.08;100787.31;5045436;28;20120;-60
2023/09/28 00:06:27;;;;;;;4.50;2.70;;;;;;;20.22;86.34;100801.84;5046990;28;20020;-56
2023/09/28 00:08:53;;;;;;;2.60;1.75;;;;;;;20.12;86.68;100802.75;5046059;28;20502;-60
2023/09/28 00:11:18;;;;;;;4.85;1.98;;;;;;;20.00;87.32;100797.88;5047382;28;20396;-61
2023/09/28 00:13:44;;;;;;;3.60;1.98;;;;;;;20.02;87.54;100798.22;5046087;28;20032;-57
2023/09/28 00:16:09;;;;;;;3.85;2.50;;;;;;;20.02;87.39;100796.28;5046474;28;20033;-59
2023/09/28 00:18:36;;;;;;;3.17;2.30;;;;;;;19.99;87.94;100790.88;5044901;28;20118;-58
2023/09/28 00:21:01;;;;;;;3.08;2.35;;;;;;;19.96;88.02;100797.94;5041829;28;20526;-58
2023/09/28 00:23:27;;;;;;;6.45;2.70;;;;;;;19.89;88.10;100791.81;5042418;28;20080;-58
2023/09/28 00:25:52;;;;;;;4.82;2.38;;;;;;;19.86;88.49;100792.66;5044578;28;20041;-56
2023/09/28 00:28:18;;;;;;;2.97;2.05;;;;;;;19.80;88.53;100793.09;5047011;28;20021;-60
2023/09/28 00:30:44;;;;;;;4.20;2.58;;;;;;;19.76;88.78;100794.34;5045383;28;20044;-60
2023/09/28 00:33:09;;;;;;;3.38;2.35;;;;;;;19.69;88.86;100788.97;5052663;28;20017;-61
2023/09/28 00:35:35;;;;;;;4.43;2.38;;;;;;;19.70;88.61;100785.81;5045626;28;20032;-56
2023/09/28 00:38:00;;;;;;;4.10;1.95;;;;;;;19.70;88.84;100796.00;5050689;28;20052;-58
2023/09/28 00:40:31;;;;;;;4.78;2.58;;;;;;;19.68;88.41;100793.69;5053966;28;20028;-58
2023/09/28 00:42:57;;;;;;;3.33;2.05;;;;;;;19.66;88.99;100793.31;5047789;28;20029;-60
2023/09/28 00:45:25;;;;;;;3.70;2.22;;;;;;;19.69;88.99;100795.22;5052445;28;20035;-57
2023/09/28 00:47:54;;;;;;;4.15;2.65;;;;;;;19.74;89.05;100783.81;5049634;28;20036;-60
2023/09/28 00:50:20;;;;;;;5.35;2.63;;;;;;;19.72;89.19;100788.16;5053150;28;20051;-58
2023/09/28 00:52:59;;;;;;;2.90;2.28;;;;;;;19.78;89.04;100786.50;5047386;28;20407;-58
2023/09/28 00:55:25;;;;;;;4.25;2.33;;;;;;;19.80;88.97;100787.63;5047633;28;20028;-60
2023/09/28 00:57:51;;;;;;;6.07;2.15;;;;;;;19.88;88.51;100784.81;5051009;28;20130;-59
2023/09/28 01:00:26;;;;;;;4.50;2.67;;;;;;;19.89;88.71;100783.59;5055166;28;20396;-60
2023/09/28 01:02:53;;;;;;;9.23;2.90;;;;;;;19.79;90.01;100785.31;5045498;28;20147;-55
2023/09/28 01:05:26;;;;;;;7.25;3.20;;;;;;;19.83;90.19;100777.06;5029974;28;20021;-54
2023/09/28 01:07:52;;;;;;;4.20;2.67;;;;;;;19.86;89.73;100778.97;5047545;28;20479;-61
2023/09/28 01:10:24;;;;;;;4.90;3.20;;;;;;;19.88;89.29;100784.81;5049913;28;20047;-57
2023/09/28 01:12:51;;;;;;;4.72;2.90;;;;;;;19.91;89.39;100787.47;5049911;28;20036;-53
2023/09/28 01:15:19;;;;;;;3.35;2.30;;;;;;;19.90;89.60;100785.91;5049714;28;20429;-55
2023/09/28 01:17:45;;;;;;;5.10;2.67;;;;;;;19.95;89.72;100787.41;5046133;28;20455;-59
2023/09/28 01:20:30;;;;;;;4.78;2.65;;;;;;;20.00;89.66;100778.72;5054950;28;20037;-57
2023/09/28 01:22:55;;;;;;;5.38;2.95;;;;;;;20.02;89.61;100774.41;5051187;28;20492;-57
2023/09/28 01:25:26;;;;;;;4.30;3.03;;;;;;;20.01;89.55;100772.88;5055978;28;20055;-55
2023/09/28 01:27:54;;;;;;;5.00;2.88;;;;;;;20.01;89.40;100769.34;5053411;28;20384;-52
2023/09/28 01:30:20;;;;;;;7.05;3.13;;;;;;;19.95;89.85;100760.06;5057523;28;20053;-59
2023/09/28 01:32:46;;;;;;;14.88;2.97;;;;;;;19.94;89.99;100755.81;5049990;28;20028;-54
2023/09/28 01:35:12;;;;;;;5.43;3.28;;;;;;;19.94;89.89;100761.28;5054531;28;20353;-61
2023/09/28 01:38:14;;;;;;;4.28;2.97;;;;;;;19.97;89.62;100744.81;5054817;28;20032;-56
2023/09/28 01:40:42;;;;;;;5.30;3.05;;;;;;;19.95;89.62;100736.25;5047566;28;20033;-55
2023/09/28 01:43:10;;;;;;;6.18;3.20;;;;;;;19.94;89.81;100733.94;5052053;28;20029;-57
2023/09/28 01:45:35;;;;;;;4.25;2.97;;;;;;;19.90;90.31;100728.50;5052247;28;20106;-61
2023/09/28 01:48:03;;;;;;;4.15;3.00;;;;;;;19.89;90.10;100721.50;5051886;28;20028;-59
2023/09/28 01:50:29;;;;;;;5.82;3.17;;;;;;;19.89;90.32;100726.19;5047530;28;20487;-60
2023/09/28 01:52:58;;;;;;;6.07;2.90;;;;;;;19.83;90.49;100733.31;5052066;28;20387;-60
2023/09/28 01:55:24;;;;;;;4.65;2.95;;;;;;;19.61;91.79;100717.25;5048894;28;20036;-61
2023/09/28 01:57:50;;;;;;;5.50;3.15;;;;;;;19.64;92.42;100716.44;5047755;28;20047;-61
2023/09/28 02:00:18;;;;;;;5.07;3.10;;;;;;;19.71;92.47;100719.06;5052898;28;20060;-57
2023/09/28 02:02:44;;;;;;;4.53;2.83;;;;;;;19.76;91.74;100713.09;5049620;28;20028;-57
2023/09/28 02:05:13;;;;;;;5.20;3.28;;;;;;;19.73;91.89;100708.47;5055350;28;20039;-61
2023/09/28 02:07:39;;;;;;;8.18;4.10;;;;;;;19.82;91.99;100715.38;5054281;28;20104;-61
2023/09/28 02:10:06;;;;;;;5.70;3.35;;;;;;;19.85;91.49;100720.78;5054843;28;20108;-56
2023/09/28 02:12:32;;;;;;;6.70;3.95;;;;;;;19.84;91.57;100719.22;5046537;28;20028;-56
2023/09/28 02:15:01;;;;;;;6.30;3.75;;;;;;;19.91;91.06;100724.59;5048329;28;20041;-61
2023/09/28 02:17:29;;;;;;;5.57;3.50;;;;;;;19.84;91.88;100718.47;5051921;28;20040;-59
2023/09/28 02:19:54;;;;;;;5.88;3.83;;;;;;;19.74;92.24;100717.47;5052193;28;20029;-54
2023/09/28 02:22:20;;;;;;;7.28;3.88;;;;;;;19.84;92.05;100713.75;5057714;28;20505;-53
2023/09/28 02:24:46;;;;;;;6.53;3.92;;;;;;;19.83;92.09;100706.75;5052220;28;20033;-61
2023/09/28 02:27:12;;;;;;;7.85;3.60;;;;;;;19.82;92.22;100709.91;5058281;28;20055;-61
2023/09/28 02:29:38;;;;;;;9.10;3.67;;;;;;;19.88;92.19;100721.91;5054173;28;20040;-57
2023/09/28 02:32:05;;;;;;;9.45;4.03;;;;;;;19.97;91.40;100733.09;5058464;28;20493;-57
2023/09/28 02:34:34;;;;;;;8.38;3.75;;;;;;;19.93;91.67;100744.09;5051878;28;20032;-57
2023/09/28 02:37:01;;;;;;;6.72;3.30;;;;;;;19.96;91.69;100751.44;5058368;28;20033;-61
2023/09/28 02:39:28;;;;;;;5.55;3.60;;;;;;;19.93;91.59;100741.34;5052454;28;20492;-55
2023/09/28 02:41:55;;;;;;;10.45;4.60;;;;;;;19.71;92.12;100731.94;5051497;28;20025;-57
2023/09/28 02:44:21;;;;;;;6.93;3.72;;;;;;;19.77;92.38;100733.03;5054430;28;20101;-57
2023/09/28 02:46:47;;;;;;;6.65;3.70;;;;;;;19.75;92.20;100727.97;5052638;28;20025;-59
2023/09/28 02:49:12;;;;;;;8.48;3.55;;;;;;;19.76;91.98;100732.25;5041758;28;20471;-58
2023/09/28 02:51:38;;;;;;;8.43;3.88;;;;;;;19.84;91.79;100734.88;5048562;28;20028;-59
2023/09/28 02:54:03;;;;;;;9.75;3.92;;;;;;;19.79;91.91;100736.91;5054709;28;20045;-56
2023/09/28 02:56:29;;;;;;;5.68;3.40;;;;;;;19.83;91.92;100733.31;5053449;28;20067;-58
2023/09/28 02:58:57;;;;;;;8.18;3.75;;;;;;;19.79;91.98;100738.84;5053869;28;20826;-52
2023/09/28 03:01:22;;;;;;;6.47;3.72;;;;;;;19.82;91.72;100729.06;5060753;28;20075;-55
2023/09/28 03:03:47;;;;;;;7.93;3.63;;;;;;;19.80;91.70;100735.69;5053473;28;20060;-54
2023/09/28 03:06:13;;;;;;;8.25;3.97;;;;;;;19.75;91.59;100729.94;5053692;28;20387;-58
2023/09/28 03:08:39;;;;;;;7.68;3.65;;;;;;;19.66;92.25;100727.75;5055622;28;20501;-57
2023/09/28 03:11:05;;;;;;;6.10;3.75;;;;;;;19.70;91.97;100724.94;5050246;28;20127;-57
2023/09/28 03:13:30;;;;;;;6.68;3.83;;;;;;;19.71;91.78;100716.31;5045553;28;20037;-57
2023/09/28 03:15:57;;;;;;;7.13;3.88;;;;;;;19.65;92.30;100711.72;5037681;28;20026;-59
2023/09/28 03:18:22;;;;;;;5.75;3.47;;;;;;;19.59;92.21;100718.84;5043960;28;20021;-60
2023/09/28 03:20:48;;;;;;;7.65;3.47;;;;;;;19.49;92.52;100720.56;5049951;28;20021;-60
2023/09/28 03:23:14;;;;;;;6.63;3.45;;;;;;;19.37;93.39;100725.84;5047195;28;20037;-60
2023/09/28 03:25:40;;;;;;;8.25;3.75;;;;;;;19.36;94.54;100716.84;5044244;28;20031;-61
2023/09/28 03:28:06;;;;;;;7.40;3.30;;;;;;;19.42;93.83;100737.06;5047971;28;20514;-60
2023/09/28 03:30:32;;;;;;;7.95;3.85;;;;;;;19.47;93.24;100731.13;5052410;28;20798;-60
2023/09/28 03:32:59;;;;;;;6.05;3.47;;;;;;;19.47;93.05;100736.59;5049487;28;20040;-54
2023/09/28 03:35:26;;;;;;;5.30;3.13;;;;;;;19.43;93.01;100726.91;5059156;28;20548;-59
2023/09/28 03:37:57;;;;;;;7.28;3.67;;;;;;;19.42;92.62;100737.06;5050485;28;20514;-54
2023/09/28 03:40:23;;;;;;;;;;;;;;;19.32;93.03;100721.59;5052068;28;20123;-57
2023/09/28 03:42:49;;;;;;;5.45;3.13;;;;;;;19.10;94.77;100719.56;5053649;28;19991;-60
2023/09/28 03:45:16;;;;;;;5.28;3.45;;;;;;;19.10;95.13;100720.34;5048385;28;20060;-60
2023/09/28 03:47:43;;;;;;;7.28;3.53;;;;;;;19.25;94.22;100721.69;5050679;28;20112;-60
2023/09/28 03:50:10;;;;;;;4.90;3.28;;;;;;;19.19;94.88;100706.94;5047338;28;20120;-60
2023/09/28 03:52:37;;;;;;;7.70;3.95;;;;;;;19.32;93.72;100709.84;5047878;28;20029;-56
2023/09/28 03:55:14;;;;;;;7.13;3.90;;;;;;;19.35;94.02;100707.13;5056336;28;20091;-58
2023/09/28 03:57:39;;;;;;;7.63;3.83;;;;;;;19.37;93.97;100717.63;5046638;28;20090;-59
2023/09/28 04:00:06;;;;;;;9.25;4.28;;;;;;;19.40;93.32;100701.19;5052434;28;20029;-58
2023/09/28 04:02:42;;;;;;;12.35;4.13;;;;;;;19.25;94.05;100705.28;5043715;28;20052;-53
2023/09/28 04:05:08;;;;;;;9.57;4.00;;;;;;;19.29;94.39;100705.25;5047141;28;20037;-58
2023/09/28 04:07:35;;;;;;;5.35;3.70;;;;;;;19.29;94.61;100710.69;5049050;28;20772;-52
2023/09/28 04:10:00;;;;;;;5.68;3.63;;;;;;;19.34;94.14;100708.31;5044128;28;20061;-53
2023/09/28 04:12:27;;;;;;;7.88;4.22;;;;;;;18.90;95.75;100709.28;5055698;28;20062;-53
2023/09/28 04:14:53;;;;;;;7.60;4.22;;;;;;;19.05;96.23;100712.59;5046921;28;20037;-56
2023/09/28 04:17:19;;;;;;;9.15;4.72;;;;;;;19.24;94.79;100720.13;5049167;28;20017;-56
2023/09/28 04:19:44;;;;;;;8.40;4.35;;;;;;;19.25;95.11;100727.13;5049216;28;20129;-55
2023/09/28 04:22:10;;;;;;;6.90;3.67;;;;;;;19.26;94.78;100719.72;5054872;28;20029;-59
2023/09/28 04:24:35;;;;;;;7.13;3.63;;;;;;;19.16;95.25;100713.22;5054270;28;20028;-53
2023/09/28 04:27:01;;;;;;;7.95;4.47;;;;;;;19.05;95.75;100706.38;5050220;28;20439;-53
2023/09/28 04:29:27;;;;;;;6.72;3.85;;;;;;;19.08;95.38;100694.63;5055601;28;20400;-59
2023/09/28 04:31:54;;;;;;;9.52;3.97;;;;;;;19.16;95.59;100693.34;5048847;28;20107;-60
2023/09/28 04:34:20;;;;;;;10.55;3.85;;;;;;;19.28;94.58;100701.72;5055554;28;20036;-60
2023/09/28 04:36:46;;;;;;;9.07;3.78;;;;;;;19.22;94.22;100689.72;5049142;28;20069;-60
2023/09/28 04:39:12;;;;;;;5.82;3.50;;;;;;;19.22;94.54;100699.88;5046168;28;20036;-59
2023/09/28 04:41:38;;;;;;;9.45;4.07;;;;;;;19.17;94.64;100701.09;5045702;28;20498;-52
2023/09/28 04:44:05;;;;;;;7.85;4.13;;;;;;;19.17;95.05;100698.38;5050580;28;20119;-52
2023/09/28 04:46:31;;;;;;;8.82;3.70;;;;;;;19.18;94.94;100708.09;5036954;28;21572;-61
2023/09/28 04:48:57;;;;;;;7.68;3.80;;;;;;;19.27;94.65;100702.91;5047680;28;20032;-53
2023/09/28 04:51:22;;;;;;;7.53;3.63;;;;;;;19.31;94.20;100708.31;5045749;28;20036;-59
2023/09/28 04:53:48;;;;;;;8.35;4.18;;;;;;;19.28;94.31;100723.56;5053508;28;20040;-57
2023/09/28 04:56:15;;;;;;;9.15;3.30;;;;;;;19.27;94.07;100724.00;5051780;28;20070;-55
2023/09/28 04:58:41;;;;;;;7.25;4.28;;;;;;;19.25;94.18;100724.41;5048298;28;20111;-57
2023/09/28 05:01:14;;;;;;;6.43;3.53;;;;;;;19.20;93.79;100724.84;5058241;28;20190;-59
2023/09/28 05:03:43;;;;;;;8.13;3.88;;;;;;;19.14;94.63;100725.75;5053048;28;20043;-56
2023/09/28 05:06:09;;;;;;;9.75;3.78;;;;;;;19.18;94.54;100735.41;5058119;28;20038;-58
2023/09/28 05:08:35;;;;;;;6.72;4.20;;;;;;;19.20;94.46;100727.59;5046074;28;20218;-55
2023/09/28 05:11:01;;;;;;;8.50;3.55;;;;;;;19.29;94.17;100732.53;5047703;28;20036;-58
2023/09/28 05:13:29;;;;;;;5.82;3.67;;;;;;;19.36;93.61;100740.66;5047277;28;20028;-55
2023/09/28 05:15:55;;;;;;;10.65;4.00;;;;;;;19.29;94.54;100730.59;5045963;28;20115;-56
2023/09/28 05:18:20;;;;;;;7.90;3.58;;;;;;;19.25;94.43;100713.47;5050852;28;20111;-59
2023/09/28 05:20:48;;;;;;;7.72;4.28;;;;;;;19.21;95.08;100722.91;5043006;28;20021;-57
2023/09/28 05:23:14;;;;;;;8.10;4.07;;;;;;;19.22;94.83;100727.94;5054264;28;20402;-60
2023/09/28 05:25:39;;;;;;;6.72;4.28;;;;;;;19.14;95.47;100723.00;5046493;28;20043;-58
2023/09/28 05:28:05;;;;;;;5.78;3.65;;;;;;;19.22;95.07;100727.94;5051099;28;20043;-58
2023/09/28 05:30:30;;;;;;;8.77;3.30;;;;;;;19.23;94.97;100743.16;5045485;28;20025;-59
2023/09/28 05:32:56;;;;;;;8.95;3.67;;;;;;;19.37;94.53;100747.69;5051736;28;20403;-56
2023/09/28 05:35:23;;;;;;;7.78;3.50;;;;;;;19.17;95.47;100752.22;5046981;28;20045;-57
2023/09/28 05:37:49;;;;;;;7.68;3.65;;;;;;;19.24;94.82;100752.88;5044994;28;20041;-60
2023/09/28 05:40:14;;;;;;;7.35;3.60;;;;;;;19.36;94.16;100757.84;5060724;28;20477;-58
2023/09/28 05:42:41;;;;;;;9.65;4.35;;;;;;;19.47;93.46;100766.66;5053122;28;20025;-56
2023/09/28 05:45:07;;;;;;;9.85;3.92;;;;;;;19.40;93.63;100769.50;5048638;28;20040;-56
2023/09/28 05:47:34;;;;;;;10.77;3.97;;;;;;;19.47;93.12;100776.81;5036645;28;20025;-59
2023/09/28 05:50:07;;;;;;;8.32;4.25;;;;;;;19.47;92.89;100769.38;5037215;28;20020;-58
2023/09/28 05:52:33;;;;;;;6.68;3.65;;;;;;;19.46;93.05;100767.06;5043332;28;20033;-57
2023/09/28 05:54:58;;;;;;;6.50;3.50;;;;;;;19.49;93.35;100763.53;5055133;28;20025;-56
2023/09/28 05:57:24;;;;;;;6.70;3.88;;;;;;;19.41;93.61;100768.31;5053447;28;20436;-58
2023/09/28 05:59:49;;;;;;;8.98;3.38;;;;;;;19.44;93.28;100772.16;5054209;28;20020;-60
2023/09/28 06:02:15;;;;;;;7.43;3.67;;;;;;;19.45;93.27;100774.47;5052584;28;20051;-53
2023/09/28 06:04:43;;;;;;;7.22;3.90;;;;;;;19.35;93.96;100780.09;5057370;28;20160;-58
2023/09/28 06:07:12;;;;;;;8.48;3.95;;;;;;;19.49;93.56;100779.91;5056825;28;20487;-55
2023/09/28 06:09:38;;;;;;;7.03;3.33;;;;;;;19.53;92.61;100780.66;5048702;28;20024;-55
2023/09/28 06:12:04;;;;;;;6.95;3.85;;;;;;;19.53;92.90;100786.09;5051548;28;20024;-59
2023/09/28 06:14:29;;;;;;;9.50;3.60;;;;;;;19.57;92.64;100790.31;5051816;28;20039;-55
2023/09/28 06:16:56;;;;;;;9.15;3.38;;;;;;;19.65;92.41;100788.25;5046662;28;20059;-55
2023/09/28 06:19:22;;;;;;;8.57;3.80;;;;;;;19.65;91.99;100799.19;5046482;28;20155;-58
2023/09/28 06:21:48;;;;;;;6.10;3.20;;;;;;;19.71;91.93;100803.00;5045720;28;20033;-56
2023/09/28 06:24:14;;;;;;;6.93;3.60;;;;;;;19.65;91.67;100805.44;5055397;28;20107;-59
2023/09/28 06:26:40;;;;;;;11.52;3.75;;;;;;;19.72;91.38;100802.59;5054076;28;20135;-56
2023/09/28 06:29:06;;;;;;;5.70;3.60;;;;;;;19.77;91.30;100807.59;5052359;28;20032;-60
2023/09/28 06:31:33;;;;;;;6.28;3.55;;;;;;;19.80;91.22;100809.50;5051444;28;20032;-56
2023/09/28 06:33:59;;;;;;;5.38;3.22;;;;;;;19.79;91.28;100807.97;5052156;28;20029;-60
2023/09/28 06:36:28;;;;;;;5.40;3.15;;;;;;;19.79;91.45;100805.22;5050218;28;20471;-58
2023/09/28 06:38:56;;;;;;;5.05;3.42;;;;;;;19.81;91.34;100807.53;5050257;28;20111;-56
2023/09/28 06:41:22;;;;;;;5.45;2.83;;;;;;;19.90;90.81;100809.78;5055682;28;20056;-55
2023/09/28 06:43:50;;;;;;;6.50;3.22;;;;;;;19.93;90.95;100815.19;5052534;28;20087;-59
2023/09/28 06:46:16;;;;;;;4.15;2.50;;;;;;;19.92;90.67;100824.56;5058279;28;20043;-54
2023/09/28 06:48:41;;;;;;;5.05;2.95;;;;;;;19.98;91.00;100811.19;5049082;28;20045;-60
2023/09/28 06:51:06;;;;;;;5.60;2.90;;;;;;;20.05;91.06;100817.34;5049008;28;20028;-58
2023/09/28 06:53:33;;;;;;;8.45;3.45;;;;;;;20.13;90.70;100823.47;5044859;28;20021;-58
2023/09/28 06:56:02;;;;;;;4.65;2.88;;;;;;;20.17;90.71;100818.72;5053870;28;20029;-59
2023/09/28 06:58:28;;;;;;;5.53;3.20;;;;;;;20.23;90.06;100825.28;5053756;28;20032;-60
2023/09/28 07:00:53;;;;;;;5.30;3.30;;;;;;;20.26;89.73;100827.19;5050598;28;20036;-55
2023/09/28 07:03:19;;;;;;;5.97;3.00;;;;;;;20.29;89.71;100832.59;5052737;28;20387;-59
2023/09/28 07:05:46;;;;;;;5.40;3.28;;;;;;;20.38;89.29;100841.03;5056985;28;20086;-58
2023/09/28 07:08:12;;;;;;;5.78;3.10;;;;;;;20.33;88.58;100835.25;5053872;28;20402;-56
2023/09/28 07:10:38;;;;;;;4.80;2.95;;;;;;;20.36;88.47;100846.16;5054616;28;20066;-56
2023/09/28 07:13:05;;;;;;;5.78;2.88;;;;;;;20.46;88.19;100847.19;5046192;28;20044;-57
2023/09/28 07:15:32;;;;;;;6.82;2.83;;;;;;;20.52;87.90;100850.97;5051590;28;20476;-59
2023/09/28 07:17:58;;;;;;;4.18;2.55;;;;;;;20.53;87.79;100849.78;5045344;28;20036;-60
2023/09/28 07:20:27;;;;;;;7.15;2.70;;;;;;;20.53;87.35;100861.53;5051545;28;20024;-56
2023/09/28 07:22:53;;;;;;;6.57;3.00;;;;;;;20.61;86.83;100865.66;5055072;28;20029;-60
2023/09/28 07:25:19;;;;;;;4.70;2.78;;;;;;;20.69;86.72;100866.34;5044537;28;20028;-60
2023/09/28 07:27:45;;;;;;;4.22;2.83;;;;;;;20.70;85.57;100873.34;5049387;28;20041;-60
2023/09/28 07:30:11;;;;;;;4.22;2.35;;;;;;;20.65;86.20;100873.84;5047333;28;20412;-59
2023/09/28 07:32:38;;;;;;;4.93;2.22;;;;;;;20.72;86.37;100870.19;5041865;28;20484;-54
2023/09/28 07:35:04;;;;;;;4.20;2.67;;;;;;;20.77;85.95;100862.25;5037758;28;20022;-56
2023/09/28 07:37:30;;;;;;;4.68;2.45;;;;;;;20.87;86.04;100868.72;5043189;28;20024;-59
2023/09/28 07:39:56;;;;;;;4.20;2.55;;;;;;;20.97;85.57;100875.97;5050457;28;20048;-57
2023/09/28 07:42:23;;;;;;;3.72;2.38;;;;;;;21.03;85.21;100879.81;5052647;28;20025;-57
2023/09/28 07:44:51;;;;;;;5.70;2.53;;;;;;;21.01;85.60;100871.25;5052198;28;20090;-58
2023/09/28 07:47:18;;;;;;;3.70;2.28;;;;;;;21.00;85.82;100875.16;5035298;28;20025;-57
2023/09/28 07:49:47;;;;;;;4.53;2.85;;;;;;;21.06;85.13;100878.97;5047081;28;20033;-58
2023/09/28 07:52:13;;;;;;;3.90;2.45;;;;;;;21.08;85.35;100873.84;5057724;28;20029;-58
2023/09/28 07:54:39;;;;;;;4.70;2.45;;;;;;;21.06;85.01;100879.75;5052936;28;20532;-56
2023/09/28 07:57:07;;;;;;;3.88;2.45;;;;;;;20.98;86.14;100889.25;5050929;28;20021;-58
2023/09/28 07:59:33;;;;;;;5.70;2.22;;;;;;;21.06;86.10;100885.22;5051896;28;20063;-59
2023/09/28 08:01:58;;;;;;;5.22;2.90;;;;;;;21.07;85.21;100881.28;5047918;28;20379;-56
2023/09/28 08:04:25;;;;;;;6.03;2.97;;;;;;;21.16;85.56;100886.19;5045299;28;20037;-59
2023/09/28 08:06:50;;;;;;;5.68;2.35;;;;;;;21.34;85.51;100884.69;5049021;28;20117;-60
2023/09/28 08:09:16;;;;;;;4.05;2.30;;;;;;;21.44;84.88;100893.88;5051550;28;20048;-59
2023/09/28 08:11:41;;;;;;;4.63;2.70;;;;;;;21.49;84.57;100902.38;5048432;28;20029;-58
2023/09/28 08:14:09;;;;;;;3.75;2.42;;;;;;;21.66;83.76;100907.94;5049886;28;20387;-54
2023/09/28 08:16:35;;;;;;;3.40;2.55;;;;;;;21.68;83.81;100909.03;5047706;28;20052;-59
2023/09/28 08:19:02;;;;;;;5.85;2.55;;;;;;;21.71;82.84;100896.44;5049993;28;20044;-59
2023/09/28 08:21:28;;;;;;;4.07;2.65;;;;;;;21.61;82.90;100913.88;5053098;28;20033;-57
2023/09/28 08:23:55;;;;;;;4.18;2.88;;;;;;;21.58;82.71;100913.53;5054394;28;20029;-57
2023/09/28 08:26:20;;;;;;;4.20;2.28;;;;;;;21.48;83.46;100917.28;5048105;28;20028;-54
2023/09/28 08:28:46;;;;;;;5.30;2.50;;;;;;;21.52;84.07;100917.97;5047316;28;20029;-55
2023/09/28 08:31:12;;;;;;;4.30;2.50;;;;;;;21.61;84.98;100920.16;5051746;28;20028;-60
2023/09/28 08:33:37;;;;;;;4.13;2.83;;;;;;;21.74;83.73;100920.28;5047797;28;20402;-58
2023/09/28 08:36:06;;;;;;;4.75;2.30;;;;;;;21.99;83.74;100923.31;5049604;28;20091;-59
2023/09/28 08:38:32;;;;;;;6.25;2.70;;;;;;;22.38;82.15;100912.19;5053722;28;20037;-60
2023/09/28 08:41:02;;;;;;;6.07;2.38;;;;;;;22.59;80.96;100911.69;5053837;28;20059;-59
2023/09/28 08:43:32;;;;;;;4.75;2.67;;;;;;;22.85;80.28;100921.63;5050739;28;20032;-56
2023/09/28 08:46:03;;;;;;;2.70;2.17;;;;;;;23.16;79.04;100924.75;5054742;28;20057;-58
2023/09/28 08:48:29;;;;;;;7.28;2.75;;;;;;;23.61;77.40;100930.19;5046611;28;20090;-57
2023/09/28 08:51:04;;;;;;;3.05;2.08;;;;;;;23.76;75.74;100936.81;5052888;28;20037;-54
2023/09/28 08:53:31;;;;;;;4.55;2.78;;;;;;;24.13;74.95;100941.63;5052809;28;20115;-56
2023/09/28 08:55:57;;;;;;;4.18;2.53;;;;;;;24.36;73.25;100935.78;5048457;28;20468;-52
2023/09/28 08:58:23;;;;;;;4.13;2.17;;;;;;;24.62;71.45;100940.03;5047294;28;20036;-60
2023/09/28 09:00:49;;;;;;;4.35;2.53;;;;;;;24.23;71.93;100937.78;5053566;28;20067;-59
2023/09/28 09:03:17;;;;;;;6.45;2.00;;;;;;;24.55;71.97;100945.00;5050435;28;20029;-60
2023/09/28 09:05:46;;;;;;;6.00;2.25;;;;;;;24.81;71.19;100950.09;5052024;28;20068;-59
2023/09/28 09:08:14;;;;;;;4.22;1.88;;;;;;;25.08;69.66;100962.56;5054179;28;20045;-57
2023/09/28 09:10:42;;;;;;;5.35;2.65;;;;;;;25.19;69.39;100974.78;5052942;28;20158;-55
2023/09/28 09:13:34;;;;;;;3.30;1.88;;;;;;;25.52;69.19;100983.50;5049016;28;20036;-57
2023/09/28 09:15:59;;;;;;;3.15;2.10;;;;;;;25.62;67.72;100976.81;5043709;28;20053;-56
2023/09/28 09:18:25;;;;;;;3.10;1.70;;;;;;;25.82;67.30;100988.31;5050808;28;20017;-59
2023/09/28 09:20:57;;;;;;;2.47;1.80;;;;;;;26.21;67.21;100989.63;5049957;28;20037;-58
2023/09/28 09:23:25;;;;;;;2.78;1.85;;;;;;;26.63;64.95;100997.00;5047479;28;20029;-58
2023/09/28 09:25:54;;;;;;;3.10;1.70;;;;;;;26.99;63.30;100976.19;5044411;28;20037;-53
2023/09/28 09:28:28;;;;;;;2.97;2.10;;;;;;;27.43;61.37;100978.22;5044054;28;20121;-61
2023/09/28 09:30:55;;;;;;;3.08;1.88;;;;;;;27.47;60.94;100969.75;5049382;28;20036;-59
2023/09/28 09:33:21;;;;;;;3.80;2.03;;;;;;;27.52;60.19;100961.63;5056902;28;20032;-56
2023/09/28 09:35:46;;;;;;;2.00;1.65;;;;;;;27.28;61.04;100960.69;5044509;28;20033;-60
2023/09/28 09:38:12;;;;;;;2.05;1.73;;;;;;;27.13;61.35;100957.00;5052315;28;20131;-59
2023/09/28 09:40:38;;;;;;;3.47;2.20;;;;;;;26.98;61.84;100958.06;5044529;28;20610;-59
2023/09/28 09:43:07;;;;;;;3.28;1.85;;;;;;;26.85;62.84;100962.97;5047884;28;20037;-56
2023/09/28 09:45:39;;;;;;;3.28;1.90;;;;;;;26.72;63.07;100961.09;5054730;28;20032;-58
2023/09/28 09:48:09;;;;;;;2.75;1.80;;;;;;;26.62;63.38;100969.78;5050971;28;20106;-60
2023/09/28 09:50:36;;;;;;;2.95;1.77;;;;;;;26.59;64.24;100965.19;5046058;28;20506;-56
2023/09/28 09:53:07;;;;;;;2.78;1.67;;;;;;;26.55;64.79;100959.81;5048159;28;20124;-55
2023/09/28 09:55:35;;;;;;;3.03;1.58;;;;;;;26.51;65.09;100950.91;5054206;28;20037;-60
2023/09/28 09:58:02;;;;;;;4.10;1.77;;;;;;;26.51;65.19;100961.94;5046460;28;20056;-58
2023/09/28 10:00:31;;;;;;;1.58;1.13;;;;;;;26.56;63.60;100958.56;5054770;28;20024;-59
2023/09/28 10:02:59;;;;;;;2.35;1.48;;;;;;;26.62;64.01;100961.50;5055140;28;20033;-62
2023/09/28 10:05:27;;;;;;;2.38;1.52;;;;;;;26.66;63.76;100962.13;5057184;28;20052;-61
2023/09/28 10:07:53;;;;;;;4.68;1.63;;;;;;;26.62;63.35;100969.78;5044791;28;20124;-62
2023/09/28 10:10:19;;;;;;;4.53;1.65;;;;;;;26.63;62.86;100963.06;5052135;28;20649;-53
2023/09/28 10:12:47;;;;;;;3.33;1.33;;;;;;;26.68;63.56;100959.69;5056457;28;20041;-61
2023/09/28 10:15:15;;;;;;;5.53;1.42;;;;;;;26.62;63.24;100964.25;5049097;28;20040;-61
2023/09/28 10:17:40;;;;;;;3.40;1.70;;;;;;;26.49;63.52;100958.88;5048094;28;20451;-55
2023/09/28 10:20:07;;;;;;;2.03;1.23;;;;;;;26.57;63.27;100956.59;5046803;28;20111;-56
2023/09/28 10:22:32;;;;;;;2.08;1.35;;;;;;;26.58;63.33;100956.13;5049985;28;20036;-58
2023/09/28 10:24:58;;;;;;;2.38;1.55;;;;;;;26.52;63.03;100971.75;5048749;28;20043;-57
2023/09/28 10:27:23;;;;;;;2.30;1.73;;;;;;;26.57;63.42;100973.94;5047574;28;20092;-61
2023/09/28 10:29:49;;;;;;;1.85;1.27;;;;;;;26.67;63.81;100964.44;5056715;28;20075;-53
2023/09/28 10:32:30;;;;;;;4.13;1.60;;;;;;;26.67;63.21;100958.16;5048487;28;20025;-58
2023/09/28 10:35:31;;;;;;;;;;;;;;;26.61;63.13;100965.50;5048757;28;20125;-62
2023/09/28 10:38:19;;;;;;;3.35;1.50;;;;;;;26.61;62.95;100963.50;5025455;28;19913;-58
2023/09/28 10:40:49;;;;;;;2.92;1.23;;;;;;;26.70;62.96;100982.91;5051058;28;20110;-59
2023/09/28 10:43:32;;;;;;;2.90;1.70;;;;;;;26.73;62.81;100979.22;5052080;28;20025;-55
2023/09/28 10:46:03;;;;;;;2.40;1.50;;;;;;;26.78;63.76;100973.09;5054726;28;20064;-60
2023/09/28 10:48:44;;;;;;;3.35;1.42;;;;;;;26.77;62.16;100985.38;5047923;28;20036;-53
2023/09/28 10:51:15;;;;;;;1.27;1.00;;;;;;;26.73;63.50;100984.00;5050014;28;20032;-56
2023/09/28 10:53:41;;;;;;;2.47;1.40;;;;;;;26.68;62.31;100981.78;5047564;28;20033;-59
2023/09/28 10:56:06;;;;;;;2.70;1.52;;;;;;;26.67;62.84;100980.25;5052078;28;20368;-62
2023/09/28 10:58:35;;;;;;;1.73;1.25;;;;;;;26.72;62.72;100986.00;5045952;28;20032;-54
2023/09/28 11:01:06;;;;;;;2.22;1.20;;;;;;;26.76;61.79;100989.38;5050723;28;20033;-59
2023/09/28 11:03:36;;;;;;;2.10;1.40;;;;;;;26.83;62.41;100987.56;5054709;28;20069;-56
2023/09/28 11:06:03;;;;;;;2.33;1.60;;;;;;;26.79;62.41;100988.44;5054459;28;20075;-57
2023/09/28 11:08:30;;;;;;;2.10;1.35;;;;;;;26.78;62.42;101002.75;5053110;28;20052;-57
2023/09/28 11:11:02;;;;;;;2.72;1.45;;;;;;;26.66;62.06;100995.28;5051395;28;20037;-61
2023/09/28 11:13:29;;;;;;;3.15;1.35;;;;;;;26.46;62.81;100987.41;5049279;28;20094;-58
2023/09/28 11:15:55;;;;;;;3.78;1.80;;;;;;;26.57;62.99;100987.75;5048523;28;20759;-56
2023/09/28 11:18:24;;;;;;;3.28;1.75;;;;;;;26.68;62.37;100987.31;5044028;28;20120;-60
2023/09/28 11:20:49;;;;;;;4.30;1.48;;;;;;;26.66;61.18;100984.25;5044504;28;20021;-60
2023/09/28 11:23:15;;;;;;;3.25;1.40;;;;;;;26.72;61.92;100969.41;5056227;28;20028;-58
2023/09/28 11:25:42;;;;;;;3.05;1.58;;;;;;;26.69;62.20;100967.50;5046654;28;20047;-61